createdAt,value
2022-12-03T00:02:01.236Z,0.15
2022-12-03T00:05:04.587Z,0.16
2022-12-03T00:08:06.386Z,0.20
2022-12-03T00:11:08.040Z,0.21
2022-12-03T00:14:09.717Z,0.22
2022-12-03T00:17:11.358Z,0.23
2022-12-03T00:20:18.788Z,0.22
2022-12-03T00:23:20.422Z,0.20
2022-12-03T00:26:22.006Z,0.11
2022-12-03T00:29:23.660Z,0.13
2022-12-03T00:32:25.309Z,0.17
2022-12-03T00:35:28.302Z,0.10
2022-12-03T00:38:29.961Z,0.18
2022-12-03T00:41:31.587Z,0.21
2022-12-03T00:44:33.295Z,0.14
2022-12-03T00:47:34.978Z,0.11
2022-12-03T00:50:38.030Z,0.16
2022-12-03T00:53:39.775Z,0.03
2022-12-03T00:56:41.458Z,0.08
2022-12-03T00:59:43.135Z,0.09
2022-12-03T01:02:44.867Z,0.10
2022-12-03T01:05:47.890Z,0.14
2022-12-03T01:08:49.599Z,0.09
2022-12-03T01:11:51.272Z,0.02
2022-12-03T01:14:53.288Z,-0.02
2022-12-03T01:17:55.128Z,0.08
2022-12-03T01:20:58.170Z,-0.21
2022-12-03T01:23:59.953Z,-0.05
2022-12-03T01:27:01.604Z,-0.09
2022-12-03T01:30:04.092Z,-0.01
2022-12-03T01:33:05.993Z,0.05
2022-12-03T01:36:09.479Z,0.09
2022-12-03T01:39:11.153Z,0.13
2022-12-03T01:42:15.496Z,0.09
2022-12-03T01:45:21.196Z,0.17
2022-12-03T01:48:22.858Z,0.15
2022-12-03T01:51:25.949Z,0.12
2022-12-03T01:54:31.177Z,0.15
2022-12-03T01:57:35.710Z,-0.04
2022-12-03T02:00:37.443Z,0.11
2022-12-03T02:03:39.218Z,-0.03
2022-12-03T02:06:43.448Z,0.03
2022-12-03T02:09:45.495Z,0.19
2022-12-03T02:12:49.436Z,0.07
2022-12-03T02:15:51.149Z,0.11
2022-12-03T02:18:52.805Z,0.09
2022-12-03T02:22:01.046Z,0.04
2022-12-03T02:25:10.215Z,-0.03
2022-12-03T02:28:11.912Z,0.01
2022-12-03T02:31:13.657Z,0.05
2022-12-03T02:34:30.222Z,-0.04
2022-12-03T02:37:34.293Z,-0.02
2022-12-03T02:40:37.759Z,0.01
2022-12-03T02:43:39.504Z,-0.05
2022-12-03T02:46:41.416Z,-0.03
2022-12-03T02:49:43.117Z,-0.02
2022-12-03T02:52:46.197Z,0.00
2022-12-03T02:55:50.379Z,0.03
2022-12-03T02:58:53.860Z,0.04
2022-12-03T03:01:55.712Z,0.08
2022-12-03T03:04:57.999Z,0.05
2022-12-03T03:08:00.416Z,-0.01
2022-12-03T03:11:03.648Z,0.08
2022-12-03T03:14:05.252Z,0.00
2022-12-03T03:17:06.977Z,-0.10
2022-12-03T03:20:10.109Z,-0.02
2022-12-03T03:23:14.119Z,-0.04
2022-12-03T03:26:17.445Z,-0.08
2022-12-03T03:29:19.318Z,-0.05
2022-12-03T03:32:21.031Z,-0.04
2022-12-03T03:35:23.979Z,-0.11
2022-12-03T03:38:26.895Z,0.03
2022-12-03T03:41:30.275Z,0.01
2022-12-03T03:44:32.688Z,-0.06
2022-12-03T03:47:34.463Z,0.02
2022-12-03T03:50:36.285Z,-0.08
2022-12-03T03:53:38.882Z,-0.03
2022-12-03T03:56:41.912Z,0.02
2022-12-03T03:59:43.647Z,-0.01
2022-12-03T04:02:45.488Z,0.06
2022-12-03T04:05:47.489Z,-0.11
2022-12-03T04:08:49.371Z,-0.10
2022-12-03T04:11:52.419Z,-0.10
2022-12-03T04:14:54.149Z,-0.02
2022-12-03T04:17:55.979Z,-0.02
2022-12-03T04:20:57.604Z,-0.05
2022-12-03T04:23:59.273Z,-0.06
2022-12-03T04:27:02.295Z,-0.10
2022-12-03T04:30:04.216Z,-0.07
2022-12-03T04:33:05.832Z,-0.04
2022-12-03T04:36:07.623Z,-0.23
2022-12-03T04:39:09.262Z,-0.18
2022-12-03T04:42:12.287Z,-0.13
2022-12-03T04:45:13.994Z,-0.09
2022-12-03T04:48:15.624Z,-0.07
2022-12-03T04:51:17.262Z,0.08
2022-12-03T04:54:19.017Z,-0.10
2022-12-03T04:57:22.255Z,-0.04
2022-12-03T05:00:24.173Z,-0.01
2022-12-03T05:03:25.798Z,0.02
2022-12-03T05:06:27.466Z,0.07
2022-12-03T05:09:29.080Z,-0.04
2022-12-03T05:12:32.179Z,0.08
2022-12-03T05:15:33.787Z,0.10
2022-12-03T05:18:35.466Z,0.08
2022-12-03T05:21:37.112Z,0.07
2022-12-03T05:24:38.752Z,0.05
2022-12-03T05:27:41.775Z,0.11
2022-12-03T05:30:43.555Z,0.08
2022-12-03T05:33:45.257Z,0.10
2022-12-03T05:36:46.981Z,-0.04
2022-12-03T05:39:48.663Z,0.08
2022-12-03T05:42:51.770Z,-0.11
2022-12-03T05:45:53.442Z,-0.17
2022-12-03T05:48:55.163Z,-0.17
2022-12-03T05:51:58.652Z,0.02
2022-12-03T05:55:00.783Z,-0.08
2022-12-03T05:58:03.860Z,-0.01
2022-12-03T06:01:05.690Z,0.04
2022-12-03T06:04:07.429Z,0.02
2022-12-03T06:07:13.773Z,-0.03
2022-12-03T06:10:16.964Z,-0.13
2022-12-03T06:13:20.012Z,-0.17
2022-12-03T06:16:22.101Z,-0.19
2022-12-03T06:19:23.809Z,-0.18
2022-12-03T06:22:25.551Z,-0.15
2022-12-03T06:25:27.296Z,-0.13
2022-12-03T06:28:30.376Z,-0.09
2022-12-03T06:31:32.596Z,-0.20
2022-12-03T06:34:34.404Z,-0.19
2022-12-03T06:37:36.091Z,-0.18
2022-12-03T06:40:37.779Z,-0.23
2022-12-03T06:43:40.832Z,-0.30
2022-12-03T06:46:42.594Z,-0.21
2022-12-03T06:49:44.232Z,-0.28
2022-12-03T06:52:45.964Z,-0.18
2022-12-03T06:55:47.716Z,-0.30
2022-12-03T06:58:50.725Z,-0.26
2022-12-03T07:01:52.493Z,-0.39
2022-12-03T07:04:54.674Z,-0.36
2022-12-03T07:07:56.515Z,-0.33
2022-12-03T07:10:58.382Z,-0.34
2022-12-03T07:14:05.375Z,-0.38
2022-12-03T07:17:07.655Z,-0.39
2022-12-03T07:20:09.959Z,-0.37
2022-12-03T07:23:11.693Z,-0.38
2022-12-03T07:26:13.452Z,-0.42
2022-12-03T07:29:16.544Z,-0.33
2022-12-03T07:32:18.311Z,-0.24
2022-12-03T07:35:20.057Z,-0.27
2022-12-03T07:38:21.854Z,-0.40
2022-12-03T07:41:23.716Z,-0.40
2022-12-03T07:44:26.798Z,-0.40
2022-12-03T07:47:28.495Z,-0.42
2022-12-03T07:50:30.218Z,-0.39
2022-12-03T07:53:31.969Z,-0.50
2022-12-03T07:56:33.716Z,-0.49
2022-12-03T07:59:36.729Z,-0.42
2022-12-03T08:02:38.482Z,-0.40
2022-12-03T08:05:40.262Z,-0.42
2022-12-03T08:08:41.922Z,-0.44
2022-12-03T08:11:44.120Z,-0.38
2022-12-03T08:14:47.162Z,-0.31
2022-12-03T08:17:53.570Z,-0.40
2022-12-03T08:20:55.267Z,-0.48
2022-12-03T08:24:12.396Z,-0.37
2022-12-03T08:27:16.505Z,-0.59
2022-12-03T08:30:20.174Z,-0.59
2022-12-03T08:33:25.914Z,-0.49
2022-12-03T08:36:30.010Z,-0.41
2022-12-03T08:39:32.282Z,-0.32
2022-12-03T08:42:34.474Z,-0.35
2022-12-03T08:45:38.078Z,-0.32
2022-12-03T08:48:43.999Z,-0.31
2022-12-03T08:51:48.989Z,-0.25
2022-12-03T08:54:52.126Z,-0.22
2022-12-03T08:57:54.146Z,-0.14
2022-12-03T09:00:58.590Z,-0.06
2022-12-03T09:04:15.304Z,-0.10
2022-12-03T09:07:17.151Z,-0.03
2022-12-03T09:10:18.903Z,-0.07
2022-12-03T09:13:20.679Z,-0.09
2022-12-03T09:16:23.860Z,-0.06
2022-12-03T09:19:26.828Z,0.02
2022-12-03T09:22:28.531Z,0.05
2022-12-03T09:25:30.479Z,0.07
2022-12-03T09:28:32.122Z,-0.17
2022-12-03T09:31:35.301Z,-0.25
2022-12-03T09:34:37.067Z,-0.12
2022-12-03T09:37:38.733Z,-0.08
2022-12-03T09:40:40.658Z,-0.06
2022-12-03T09:44:03.146Z,-0.10
2022-12-03T09:47:05.956Z,-0.02
2022-12-03T09:50:12.718Z,-0.05
2022-12-03T09:53:16.119Z,0.04
2022-12-03T09:56:18.994Z,0.06
2022-12-03T09:59:21.817Z,0.22
2022-12-03T10:02:26.823Z,0.07
2022-12-03T10:05:28.936Z,0.03
2022-12-03T10:08:32.272Z,-0.01
2022-12-03T10:11:35.137Z,0.04
2022-12-03T10:14:36.970Z,0.03
2022-12-03T10:17:40.225Z,0.09
2022-12-03T10:20:41.954Z,0.14
2022-12-03T10:23:43.763Z,0.12
2022-12-03T10:26:46.143Z,0.06
2022-12-03T10:29:54.094Z,0.17
2022-12-03T10:32:58.149Z,0.21
2022-12-03T10:36:19.848Z,0.15
2022-12-03T10:39:21.561Z,0.15
2022-12-03T10:42:23.848Z,0.14
2022-12-03T10:45:25.621Z,0.16
2022-12-03T10:48:28.822Z,0.07
2022-12-03T10:51:30.598Z,0.08
2022-12-03T10:54:33.594Z,0.11
2022-12-03T10:57:35.576Z,0.23
2022-12-03T11:00:37.490Z,0.18
2022-12-03T11:03:40.718Z,0.18
2022-12-03T11:06:42.470Z,0.21
2022-12-03T11:09:45.303Z,0.21
2022-12-03T11:13:01.831Z,0.14
2022-12-03T11:16:04.603Z,0.06
2022-12-03T11:19:14.035Z,0.13
2022-12-03T11:22:42.559Z,0.04
2022-12-03T11:25:48.188Z,-0.06
2022-12-03T11:28:53.287Z,-0.01
2022-12-03T11:31:55.035Z,0.15
2022-12-03T11:34:58.235Z,0.15
2022-12-03T11:38:23.167Z,0.09
2022-12-03T11:41:26.270Z,-0.02
2022-12-03T11:44:29.541Z,0.09
2022-12-03T11:47:32.308Z,0.04
2022-12-03T11:50:40.229Z,0.06
2022-12-03T11:53:43.407Z,-0.17
2022-12-03T11:56:45.544Z,-0.08
2022-12-03T11:59:56.998Z,-0.10
2022-12-03T12:02:58.917Z,-0.02
2022-12-03T12:06:03.611Z,-0.06
2022-12-03T12:09:05.281Z,-0.07
2022-12-03T12:12:17.995Z,-0.07
2022-12-03T12:15:49.587Z,-0.18
2022-12-03T12:18:55.121Z,-0.17
2022-12-03T12:25:50.848Z,-0.06
2022-12-03T12:28:55.628Z,-0.03
2022-12-03T12:31:59.527Z,0.10
2022-12-03T12:35:03.106Z,0.06
2022-12-03T12:38:12.806Z,0.06
2022-12-03T12:41:16.027Z,0.07
2022-12-03T12:44:17.833Z,0.06
2022-12-03T12:47:19.543Z,0.11
2022-12-03T12:50:21.248Z,0.07
2022-12-03T12:53:23.847Z,0.13
2022-12-03T12:56:28.080Z,0.14
2022-12-03T12:59:29.814Z,0.15
2022-12-03T13:02:42.012Z,0.12
2022-12-03T13:05:46.962Z,0.07
2022-12-03T13:08:49.351Z,-0.03
2022-12-03T13:11:53.820Z,0.08
2022-12-03T13:15:00.196Z,0.06
2022-12-03T13:18:10.619Z,0.11
2022-12-03T13:21:19.885Z,0.05
2022-12-03T13:24:28.985Z,0.01
2022-12-03T13:27:32.123Z,-0.03
2022-12-03T13:30:33.923Z,0.12
2022-12-03T13:33:35.688Z,0.10
2022-12-03T13:36:41.337Z,0.11
2022-12-03T13:39:46.485Z,0.10
2022-12-03T13:42:49.682Z,0.12
2022-12-03T13:45:52.667Z,-0.02
2022-12-03T13:48:57.432Z,-0.02
2022-12-03T13:52:02.154Z,-0.04
2022-12-03T13:55:04.176Z,0.07
2022-12-03T13:58:07.313Z,0.06
2022-12-03T14:01:09.147Z,0.05
2022-12-03T14:04:11.611Z,0.13
2022-12-03T14:07:13.297Z,0.01
2022-12-03T14:10:15.275Z,0.03
2022-12-03T14:13:18.423Z,0.04
2022-12-03T14:16:20.243Z,-0.08
2022-12-03T14:19:21.986Z,-0.02
2022-12-03T14:22:23.669Z,0.10
2022-12-03T14:25:25.410Z,0.07
2022-12-03T14:28:28.426Z,0.11
2022-12-03T14:31:30.238Z,0.05
2022-12-03T14:34:32.103Z,0.28
2022-12-03T14:37:33.809Z,0.10
2022-12-03T14:40:35.533Z,0.15
2022-12-03T14:43:38.593Z,0.09
2022-12-03T14:46:40.285Z,0.12
2022-12-03T14:49:42.293Z,0.08
2022-12-03T14:52:44.042Z,0.05
2022-12-03T14:55:45.795Z,0.10
2022-12-03T14:58:48.950Z,0.05
2022-12-03T15:01:50.722Z,0.08
2022-12-03T15:04:52.981Z,0.17
2022-12-03T15:07:54.834Z,0.14
2022-12-03T15:10:56.706Z,0.14
2022-12-03T15:14:00.104Z,0.21
2022-12-03T15:17:02.056Z,0.14
2022-12-03T15:20:04.178Z,0.08
2022-12-03T15:23:08.839Z,0.13
2022-12-03T15:26:14.547Z,0.25
2022-12-03T15:29:17.750Z,0.09
2022-12-03T15:32:20.017Z,0.10
2022-12-03T15:35:21.916Z,0.11
2022-12-03T15:38:23.660Z,0.17
2022-12-03T15:41:25.850Z,0.28
2022-12-03T15:44:29.006Z,0.23
2022-12-03T15:47:31.045Z,0.15
2022-12-03T15:50:38.449Z,0.18
2022-12-03T15:53:42.191Z,0.27
2022-12-03T15:56:44.022Z,0.25
2022-12-03T15:59:47.196Z,0.22
2022-12-03T16:02:52.498Z,0.27
2022-12-03T16:05:55.174Z,0.29
2022-12-03T16:08:56.951Z,0.39
2022-12-03T16:11:58.728Z,0.30
2022-12-03T16:15:01.977Z,0.32
2022-12-03T16:18:04.373Z,0.40
2022-12-03T16:21:07.674Z,0.33
2022-12-03T16:24:10.167Z,0.34
2022-12-03T16:27:12.326Z,0.38
2022-12-03T16:30:15.786Z,0.33
2022-12-03T16:33:22.544Z,0.37
2022-12-03T16:36:27.907Z,0.40
2022-12-03T16:39:29.598Z,0.44
2022-12-03T16:42:32.179Z,0.43
2022-12-03T16:45:35.469Z,0.45
2022-12-03T16:48:37.226Z,0.46
2022-12-03T16:51:39.419Z,0.46
2022-12-03T16:54:41.412Z,0.43
2022-12-03T16:57:43.504Z,0.51
2022-12-03T17:00:46.656Z,0.40
2022-12-03T17:03:48.798Z,0.40
2022-12-03T17:06:50.630Z,0.44
2022-12-03T17:09:52.719Z,0.46
2022-12-03T17:13:09.349Z,0.43
2022-12-03T17:16:12.671Z,0.45
2022-12-03T17:19:14.946Z,0.64
2022-12-03T17:22:16.803Z,0.58
2022-12-03T17:25:18.837Z,0.51
2022-12-03T17:28:20.888Z,0.51
2022-12-03T17:31:25.160Z,0.52
2022-12-03T17:34:27.252Z,0.57
2022-12-03T17:37:29.014Z,0.52
2022-12-03T17:40:30.766Z,0.48
2022-12-03T17:43:32.542Z,0.61
2022-12-03T17:46:36.068Z,0.53
2022-12-03T17:49:37.811Z,0.53
2022-12-03T17:52:39.896Z,0.53
2022-12-03T17:55:44.936Z,0.47
2022-12-03T17:58:47.796Z,0.54
2022-12-03T18:01:51.377Z,0.46
2022-12-03T18:04:53.391Z,0.53
2022-12-03T18:07:55.155Z,0.55
2022-12-03T18:10:56.854Z,0.49
2022-12-03T18:13:59.088Z,0.54
2022-12-03T18:17:02.292Z,0.59
2022-12-03T18:20:05.030Z,0.63
2022-12-03T18:23:06.706Z,0.52
2022-12-03T18:26:11.070Z,0.62
2022-12-03T18:29:12.874Z,0.61
2022-12-03T18:32:28.353Z,0.58
2022-12-03T18:35:31.950Z,0.62
2022-12-03T18:38:34.533Z,0.72
2022-12-03T18:41:36.531Z,0.63
2022-12-03T18:44:38.493Z,0.61
2022-12-03T18:47:42.713Z,0.57
2022-12-03T18:50:46.098Z,0.65
2022-12-03T18:53:48.620Z,0.65
2022-12-03T18:56:50.597Z,0.70
2022-12-03T18:59:53.059Z,0.73
2022-12-03T19:03:05.357Z,0.64
2022-12-03T19:06:16.944Z,0.68
2022-12-03T19:09:20.980Z,0.61
2022-12-03T19:12:24.022Z,0.74
2022-12-03T19:15:26.427Z,0.72
2022-12-03T19:18:37.181Z,0.66
2022-12-03T19:21:39.525Z,0.76
2022-12-03T19:24:42.031Z,0.67
2022-12-03T19:27:44.419Z,0.65
2022-12-03T19:30:46.579Z,0.64
2022-12-03T19:33:51.668Z,0.67
2022-12-03T19:36:54.728Z,0.63
2022-12-03T19:39:57.708Z,0.66
2022-12-03T19:43:00.173Z,0.67
2022-12-03T19:46:03.417Z,0.72
2022-12-03T19:49:07.605Z,0.69
2022-12-03T19:52:09.490Z,0.67
2022-12-03T19:55:11.886Z,0.58
2022-12-03T19:58:14.774Z,0.67
2022-12-03T20:01:17.991Z,0.72
2022-12-03T20:04:22.062Z,0.72
2022-12-03T20:07:24.488Z,0.70
2022-12-03T20:10:26.562Z,0.74
2022-12-03T20:13:33.512Z,0.73
2022-12-03T20:16:39.559Z,0.69
2022-12-03T20:19:43.510Z,0.76
2022-12-03T20:22:47.241Z,0.73
2022-12-03T20:25:49.851Z,0.78
2022-12-03T20:28:54.277Z,0.73
2022-12-03T20:31:57.627Z,0.73
2022-12-03T20:35:02.199Z,0.87
2022-12-03T20:38:04.766Z,0.82
2022-12-03T20:41:08.746Z,0.75
2022-12-03T20:44:11.309Z,0.73
2022-12-03T20:47:13.857Z,0.76
2022-12-03T20:50:17.949Z,0.80
2022-12-03T20:53:25.401Z,0.82
2022-12-03T20:56:29.052Z,0.78
2022-12-03T20:59:31.534Z,0.71
2022-12-03T21:02:33.954Z,0.75
2022-12-03T21:05:37.838Z,0.80
2022-12-03T21:08:42.375Z,0.83
2022-12-03T21:11:44.840Z,0.88
2022-12-03T21:14:46.687Z,0.86
2022-12-03T21:17:48.800Z,0.77
2022-12-03T21:20:52.604Z,0.86
2022-12-03T21:23:55.680Z,0.84
2022-12-03T21:26:58.095Z,0.88
2022-12-03T21:30:00.763Z,0.94
2022-12-03T21:33:02.854Z,0.90
2022-12-03T21:36:10.137Z,0.88
2022-12-03T21:39:12.333Z,0.88
2022-12-03T21:42:25.871Z,0.92
2022-12-03T21:45:39.761Z,0.93
2022-12-03T21:48:42.006Z,0.99
2022-12-03T21:55:21.495Z,0.95
2022-12-03T21:58:23.702Z,1.04
2022-12-03T22:01:26.553Z,1.07
2022-12-03T22:04:28.530Z,1.04
2022-12-03T22:07:32.234Z,1.05
2022-12-03T22:10:36.018Z,1.03
2022-12-03T22:13:38.302Z,0.98
2022-12-03T22:16:40.074Z,0.96
2022-12-03T22:19:41.826Z,1.00
2022-12-03T22:22:43.593Z,0.95
2022-12-03T22:25:46.700Z,0.98
2022-12-03T22:28:49.275Z,0.96
2022-12-03T22:31:51.326Z,0.89
2022-12-03T22:34:53.063Z,0.91
2022-12-03T22:37:54.888Z,0.91
2022-12-03T22:40:57.916Z,0.98
2022-12-03T22:43:59.837Z,0.95
2022-12-03T22:47:01.539Z,1.01
2022-12-03T22:50:03.415Z,1.00
2022-12-03T22:53:05.185Z,1.01
2022-12-03T22:56:08.340Z,0.97
2022-12-03T22:59:10.046Z,0.90
2022-12-03T23:02:11.772Z,0.97
2022-12-03T23:05:13.646Z,0.90
2022-12-03T23:08:16.490Z,0.92
2022-12-03T23:11:20.163Z,0.93
2022-12-03T23:14:21.888Z,0.93
2022-12-03T23:17:23.658Z,0.84
2022-12-03T23:20:25.541Z,0.90
2022-12-03T23:23:28.230Z,0.88
2022-12-03T23:26:33.570Z,0.84
2022-12-03T23:29:35.389Z,0.86
2022-12-03T23:32:37.175Z,0.72
2022-12-03T23:35:39.531Z,0.71
2022-12-03T23:38:41.855Z,0.80
2022-12-03T23:41:44.987Z,0.81
2022-12-03T23:44:46.937Z,0.86
2022-12-03T23:47:51.285Z,0.85
2022-12-03T23:50:55.240Z,0.89
2022-12-03T23:53:57.016Z,0.98
2022-12-03T23:57:00.098Z,0.84
